Ferndale, MI

10:27 AM EDT on September 05, 2015 (GMT -0400)
APRSWXNET | | Change Station
CLOSE
Current Station
Personal Weather Station
Location: Ferndale, MI
Elevation: 649 ft
Nearby Weather Stations

Elev 649 ft 42.46 °N, 83.13 °W | Updated 18 minutes ago

Mostly Cloudy
Mostly Cloudy
75 °F
Feels Like 75 °F
N
0
Wind Variable Wind from NE
Gusts 4.0 mph

Today
High -- | Low -- °F
--% Chance of Precip.
Yesterday
High -- | Low -- °F
Precip. -- in
7:01 AM 8:00 PM
Waning Gibbous, 48% visible
Pressure 30.15 in
Visibility 10.0 miles
Clouds Mostly Cloudy 2000 ft
Heat Index 75 °F
Dew Point 71 °F
Humidity 86%
Rainfall in
Snow Depth Not available.
UV 2 out of 12
Pollen 7.50 out of 12
Air Quality Not available.
Flu Activity Not available.
METAR KVLL 051414Z AUTO 23009KT 10SM BKN020 23/20 A3015 RMK AO2 T02310201
Pressure 30.15 in
Visibility 10.0 miles
Clouds Mostly Cloudy 2000 ft
Heat Index 75 °F
Dew Point 71 °F
Humidity 86%
Rainfall in
Snow Depth Not available.
UV 2 out of 12
Pollen 7.50 out of 12
Air Quality Not available.
Flu Activity Not available.
METAR KVLL 051414Z AUTO 23009KT 10SM BKN020 23/20 A3015 RMK AO2 T02310201

10-Day Weather Forecast

×

Almanac

Astronomy

Sep. 05, 2015 Rise Set
Actual Time
Civil Twilight
Nautical Twilight
Astronomical Twilight
Moon
Length of Visible Light
Length of Day
Tomorrow will be .
, % of the Moon is Illuminated

Today's Extremes

State Highs State Lows

Community

WunderPhotos

Upload Photos

1,852,473 photos uploaded!

WunderBlogs® & News

Nearby

Air Quality

  Air Quality AQ Index Pollutant
Not available.

Snow Depth

Station Depth Elevation

Earthquake Activity

City Distance Mag. Time & Date
Minimum magnitude displayed is 2.5.

Coastal Water Temperatures

Place Temperature

Stations

Nearby Weather Stations

Station Location Temp. Windchill Dew Point Humidity Wind Precip. Elev Updated Type